Time;durP1;ratioP1;P1;durP2;ratioP2;P2;SDS_P1;SDS_P2;PMS_P1;PMS_P2;Temp;Humidity;BMP_temperature;BMP_pressure;BME280_temperature;BME280_humidity;BME280_pressure;Samples;Min_cycle;Max_cycle;Signal;HPM_P1;HPM_P2
2022/03/13 00:00:22;;;;;;;26.95;12.00;;;;;;;;;;2075784;28;20408;-66
2022/03/13 00:01:42;;;;;;;24.80;12.18;;;;;;;;;;2079395;28;20041;-67
2022/03/13 00:03:01;;;;;;;24.92;11.27;;;;;;;;;;2079025;28;20021;-66
2022/03/13 00:04:20;;;;;;;24.90;12.70;;;;;;;;;;2079068;28;20037;-65
2022/03/13 00:05:41;;;;;;;23.50;12.32;;;;;;;;;;2079922;28;20065;-66
2022/03/13 00:07:06;;;;;;;19.08;11.20;;;;;;;;;;2079612;28;20496;-65
2022/03/13 00:08:31;;;;;;;22.08;11.82;;;;;;;;;;2080034;28;20026;-66
2022/03/13 00:09:51;;;;;;;23.15;12.30;;;;;;;;;;2079434;28;20018;-64
2022/03/13 00:11:18;;;;;;;25.23;11.27;;;;;;;;;;2078362;28;20029;-65
2022/03/13 00:12:37;;;;;;;20.85;12.77;;;;;;;;;;2078970;28;20061;-65
2022/03/13 00:13:57;;;;;;;25.80;12.45;;;;;;;;;;2080113;28;20622;-65
2022/03/13 00:15:21;;;;;;;28.77;11.95;;;;;;;;;;2079299;28;20120;-65
2022/03/13 00:16:40;;;;;;;20.95;12.05;;;;;;;;;;2078739;28;20536;-65
2022/03/13 00:17:59;;;;;;;27.42;13.07;;;;;;;;;;2080154;28;20045;-66
2022/03/13 00:19:20;;;;;;;23.52;13.45;;;;;;;;;;2080281;28;20490;-65
2022/03/13 00:20:39;;;;;;;23.10;13.57;;;;;;;;;;2078376;28;20041;-65
2022/03/13 00:21:57;;;;;;;27.80;12.68;;;;;;;;;;2076684;28;20029;-65
2022/03/13 00:23:16;;;;;;;26.30;12.77;;;;;;;;;;2079151;28;20120;-65
2022/03/13 00:24:36;;;;;;;24.45;13.02;;;;;;;;;;2079403;28;20055;-66
2022/03/13 00:25:55;;;;;;;26.75;13.25;;;;;;;;;;2080053;28;20037;-65
2022/03/13 00:27:14;;;;;;;27.05;13.02;;;;;;;;;;2078768;28;20030;-65
2022/03/13 00:28:33;;;;;;;23.17;12.50;;;;;;;;;;2079636;28;20422;-65
2022/03/13 00:29:52;;;;;;;28.35;12.73;;;;;;;;;;2078481;28;20117;-66
2022/03/13 00:31:11;;;;;;;21.13;13.27;;;;;;;;;;2078336;28;20037;-65
2022/03/13 00:32:30;;;;;;;28.17;12.00;;;;;;;;;;2079144;28;20395;-65
2022/03/13 00:33:49;;;;;;;28.20;13.02;;;;;;;;;;2080031;28;20120;-66
2022/03/13 00:35:08;;;;;;;32.78;13.43;;;;;;;;;;2079129;28;20116;-66
2022/03/13 00:36:27;;;;;;;27.13;12.95;;;;;;;;;;2078224;28;20025;-66
2022/03/13 00:37:46;;;;;;;25.63;13.63;;;;;;;;;;2079220;28;20037;-65
2022/03/13 00:39:05;;;;;;;26.50;12.23;;;;;;;;;;2078237;28;20033;-66
2022/03/13 00:40:25;;;;;;;24.25;12.98;;;;;;;;;;2078648;28;20503;-65
2022/03/13 00:41:44;;;;;;;27.20;12.98;;;;;;;;;;2078222;28;20566;-64
2022/03/13 00:43:04;;;;;;;24.27;12.05;;;;;;;;;;2080105;28;20491;-65
2022/03/13 00:44:23;;;;;;;30.63;13.65;;;;;;;;;;2078876;28;20046;-65
2022/03/13 00:45:42;;;;;;;24.73;13.90;;;;;;;;;;2079258;28;20049;-65
2022/03/13 00:47:01;;;;;;;29.38;13.65;;;;;;;;;;2078736;28;20029;-65
2022/03/13 00:48:21;;;;;;;29.90;13.35;;;;;;;;;;2077873;28;20443;-65
2022/03/13 00:49:40;;;;;;;29.35;12.75;;;;;;;;;;2078197;28;20030;-65
2022/03/13 00:50:59;;;;;;;27.83;13.65;;;;;;;;;;2078341;28;20033;-65
2022/03/13 00:52:18;;;;;;;26.13;12.88;;;;;;;;;;2074765;28;20034;-65
2022/03/13 00:53:37;;;;;;;28.13;13.27;;;;;;;;;;2078864;28;20041;-65
2022/03/13 00:54:56;;;;;;;24.73;12.88;;;;;;;;;;2078367;28;20037;-65
2022/03/13 00:56:15;;;;;;;25.73;12.63;;;;;;;;;;2079189;28;20042;-67
2022/03/13 00:57:34;;;;;;;27.77;14.68;;;;;;;;;;2077294;28;20109;-65
2022/03/13 00:58:52;;;;;;;29.33;13.90;;;;;;;;;;2079579;28;20356;-66
2022/03/13 01:00:13;;;;;;;29.90;13.15;;;;;;;;;;2078984;28;20053;-66
2022/03/13 01:01:32;;;;;;;30.73;14.02;;;;;;;;;;2080792;28;20026;-66
2022/03/13 01:02:51;;;;;;;27.80;14.43;;;;;;;;;;2079904;28;20384;-65
2022/03/13 01:04:11;;;;;;;33.85;14.77;;;;;;;;;;2078140;28;20030;-65
2022/03/13 01:05:30;;;;;;;27.38;14.70;;;;;;;;;;2078505;28;20021;-64
2022/03/13 01:06:49;;;;;;;30.13;14.52;;;;;;;;;;2080333;28;20439;-65
2022/03/13 01:08:08;;;;;;;25.17;14.48;;;;;;;;;;2080297;28;20061;-66
2022/03/13 01:09:27;;;;;;;28.23;14.20;;;;;;;;;;2079849;28;20068;-65
2022/03/13 01:10:49;;;;;;;31.05;14.48;;;;;;;;;;2078989;28;20056;-65
2022/03/13 01:12:08;;;;;;;26.10;13.85;;;;;;;;;;2077263;28;20475;-65
2022/03/13 01:13:28;;;;;;;33.80;14.30;;;;;;;;;;2076625;28;20025;-65
2022/03/13 01:14:47;;;;;;;31.13;13.50;;;;;;;;;;2079254;28;20041;-65
2022/03/13 01:16:29;;;;;;;26.88;13.48;;;;;;;;;;2080736;28;20492;-65
2022/03/13 01:17:48;;;;;;;27.33;13.60;;;;;;;;;;2078008;28;20037;-65
2022/03/13 01:19:07;;;;;;;31.02;14.70;;;;;;;;;;2079228;28;20447;-64
2022/03/13 01:20:26;;;;;;;30.23;15.27;;;;;;;;;;2078114;28;20037;-65
2022/03/13 01:21:45;;;;;;;28.63;14.70;;;;;;;;;;2077280;28;20034;-65
2022/03/13 01:23:04;;;;;;;34.42;16.05;;;;;;;;;;2078992;28;20029;-65
2022/03/13 01:24:25;;;;;;;29.75;14.82;;;;;;;;;;2080074;28;20029;-65
2022/03/13 01:25:45;;;;;;;30.40;14.13;;;;;;;;;;2079381;28;20113;-65
2022/03/13 01:27:04;;;;;;;30.45;14.52;;;;;;;;;;2077847;28;20030;-65
2022/03/13 01:28:23;;;;;;;32.67;15.82;;;;;;;;;;2078015;28;20038;-65
2022/03/13 01:29:42;;;;;;;35.30;15.35;;;;;;;;;;2074565;28;20376;-65
2022/03/13 01:31:01;;;;;;;30.25;15.93;;;;;;;;;;2075301;28;20022;-66
2022/03/13 01:32:20;;;;;;;28.48;14.70;;;;;;;;;;2074263;28;20030;-66
2022/03/13 01:33:39;;;;;;;33.45;15.27;;;;;;;;;;2078487;28;20029;-66
2022/03/13 01:34:59;;;;;;;29.17;14.15;;;;;;;;;;2077746;28;20061;-65
2022/03/13 01:36:18;;;;;;;26.27;15.23;;;;;;;;;;2080377;28;20057;-66
2022/03/13 01:37:40;;;;;;;25.60;15.57;;;;;;;;;;2079460;28;20034;-66
2022/03/13 01:39:00;;;;;;;31.27;14.75;;;;;;;;;;2079076;28;20539;-65
2022/03/13 01:40:21;;;;;;;27.80;15.18;;;;;;;;;;2078304;28;20033;-66
2022/03/13 01:41:40;;;;;;;33.78;16.80;;;;;;;;;;2079141;28;20431;-66
2022/03/13 01:42:59;;;;;;;31.42;16.40;;;;;;;;;;2078745;28;20120;-65
2022/03/13 01:44:21;;;;;;;34.25;16.85;;;;;;;;;;2080606;28;20030;-65
2022/03/13 01:45:40;;;;;;;30.58;16.63;;;;;;;;;;2078187;28;20037;-64
2022/03/13 01:47:00;;;;;;;30.67;16.67;;;;;;;;;;2077428;28;20034;-65
2022/03/13 01:48:20;;;;;;;43.13;16.48;;;;;;;;;;2075450;28;20069;-63
2022/03/13 01:49:39;;;;;;;35.03;16.55;;;;;;;;;;2074210;28;20038;-66
2022/03/13 01:50:57;;;;;;;35.97;16.67;;;;;;;;;;2079639;28;20033;-66
2022/03/13 01:52:20;;;;;;;36.83;15.95;;;;;;;;;;2078580;28;20112;-66
2022/03/13 01:53:39;;;;;;;32.10;16.38;;;;;;;;;;2077048;28;20029;-66
2022/03/13 01:54:58;;;;;;;29.60;15.50;;;;;;;;;;2078276;28;20038;-66
2022/03/13 01:56:17;;;;;;;30.63;16.10;;;;;;;;;;2079610;28;20033;-66
2022/03/13 01:57:37;;;;;;;36.40;15.77;;;;;;;;;;2079019;28;20392;-66
2022/03/13 01:58:56;;;;;;;31.67;16.58;;;;;;;;;;2080823;28;20029;-66
2022/03/13 02:00:16;;;;;;;30.02;15.88;;;;;;;;;;2080204;28;20025;-66
2022/03/13 02:01:35;;;;;;;28.45;15.73;;;;;;;;;;2078995;28;20022;-66
2022/03/13 02:02:55;;;;;;;32.22;16.33;;;;;;;;;;2076971;28;20021;-66
2022/03/13 02:04:22;;;;;;;31.17;16.73;;;;;;;;;;2080935;28;20029;-66
2022/03/13 02:05:41;;;;;;;31.05;15.40;;;;;;;;;;2080595;28;20488;-65
2022/03/13 02:07:00;;;;;;;30.13;15.90;;;;;;;;;;2080631;28;20100;-66
2022/03/13 02:08:20;;;;;;;30.02;15.23;;;;;;;;;;2078143;28;20404;-66
2022/03/13 02:09:39;;;;;;;33.97;16.30;;;;;;;;;;2079972;28;20124;-66
2022/03/13 02:10:59;;;;;;;30.23;15.73;;;;;;;;;;2081271;28;20037;-64
2022/03/13 02:12:19;;;;;;;38.03;17.08;;;;;;;;;;2080201;28;20029;-65
2022/03/13 02:13:39;;;;;;;33.08;16.65;;;;;;;;;;2080419;28;20041;-65
2022/03/13 02:14:58;;;;;;;28.48;16.75;;;;;;;;;;2080604;28;20025;-65
2022/03/13 02:16:18;;;;;;;30.63;15.65;;;;;;;;;;2081304;28;20096;-64
2022/03/13 02:17:37;;;;;;;30.48;15.40;;;;;;;;;;2080291;28;20075;-65
2022/03/13 02:18:57;;;;;;;32.90;16.00;;;;;;;;;;2081172;28;20433;-65
2022/03/13 02:20:22;;;;;;;33.53;16.35;;;;;;;;;;2079180;28;20026;-65
2022/03/13 02:21:48;;;;;;;33.17;16.13;;;;;;;;;;2081157;28;20037;-65
2022/03/13 02:23:20;;;;;;;30.08;16.30;;;;;;;;;;2079582;28;20033;-65
2022/03/13 02:24:39;;;;;;;31.25;16.10;;;;;;;;;;2081361;28;20080;-65
2022/03/13 02:25:59;;;;;;;35.17;16.35;;;;;;;;;;2081324;28;20021;-65
2022/03/13 02:27:22;;;;;;;32.78;16.77;;;;;;;;;;2081590;28;20025;-65
2022/03/13 02:28:55;;;;;;;37.58;16.85;;;;;;;;;;2078586;28;20033;-65
2022/03/13 02:30:13;;;;;;;31.67;16.83;;;;;;;;;;2079002;28;20037;-66
2022/03/13 02:31:34;;;;;;;35.67;16.45;;;;;;;;;;2080308;28;20060;-65
2022/03/13 02:32:53;;;;;;;31.27;17.33;;;;;;;;;;2081291;28;20396;-64
2022/03/13 02:34:13;;;;;;;36.47;17.08;;;;;;;;;;2080400;28;20030;-65
2022/03/13 02:35:32;;;;;;;39.53;17.83;;;;;;;;;;2080473;28;20037;-65
2022/03/13 02:36:56;;;;;;;33.97;16.33;;;;;;;;;;2079495;28;20034;-67
2022/03/13 02:38:15;;;;;;;31.58;15.82;;;;;;;;;;2078006;28;20037;-65
2022/03/13 02:39:36;;;;;;;36.22;15.02;;;;;;;;;;2080814;28;20038;-65
2022/03/13 02:40:55;;;;;;;38.13;16.45;;;;;;;;;;2080016;28;20068;-65
2022/03/13 02:42:14;;;;;;;34.47;16.00;;;;;;;;;;2078540;28;20395;-64
2022/03/13 02:43:33;;;;;;;33.47;16.23;;;;;;;;;;2074802;28;20399;-65
2022/03/13 02:44:52;;;;;;;28.38;16.17;;;;;;;;;;2080041;28;20383;-65
2022/03/13 02:46:21;;;;;;;31.55;16.92;;;;;;;;;;2079096;28;20044;-65
2022/03/13 02:47:40;;;;;;;30.85;15.68;;;;;;;;;;2078682;28;20691;-65
2022/03/13 02:48:59;;;;;;;32.30;15.60;;;;;;;;;;2078741;28;20033;-66
2022/03/13 02:50:18;;;;;;;27.50;15.68;;;;;;;;;;2080192;28;20033;-64
2022/03/13 02:51:37;;;;;;;33.55;15.18;;;;;;;;;;2080787;28;20030;-65
2022/03/13 02:52:56;;;;;;;33.53;16.10;;;;;;;;;;2081193;28;20063;-65
2022/03/13 02:54:15;;;;;;;31.67;15.57;;;;;;;;;;2076767;28;20059;-65
2022/03/13 02:55:34;;;;;;;29.98;14.65;;;;;;;;;;2079518;28;20034;-65
2022/03/13 02:56:53;;;;;;;25.40;14.48;;;;;;;;;;2079241;28;20104;-64
2022/03/13 02:58:12;;;;;;;32.42;15.00;;;;;;;;;;2079942;28;20033;-65
2022/03/13 02:59:31;;;;;;;30.27;15.77;;;;;;;;;;2079123;28;20116;-66
2022/03/13 03:00:50;;;;;;;30.08;16.00;;;;;;;;;;2079879;28;20439;-65
2022/03/13 03:02:09;;;;;;;33.10;16.15;;;;;;;;;;2080432;28;20025;-65
2022/03/13 03:03:28;;;;;;;32.70;15.52;;;;;;;;;;2080699;28;20246;-66
2022/03/13 03:04:48;;;;;;;34.85;16.08;;;;;;;;;;2081151;28;20042;-65
2022/03/13 03:06:11;;;;;;;32.15;15.88;;;;;;;;;;2078450;28;20026;-65
2022/03/13 03:07:30;;;;;;;28.00;14.65;;;;;;;;;;2080306;28;20037;-68
2022/03/13 03:08:50;;;;;;;25.42;14.73;;;;;;;;;;2080696;28;20400;-66
2022/03/13 03:10:12;;;;;;;29.15;15.98;;;;;;;;;;2080141;28;20491;-65
2022/03/13 03:11:34;;;;;;;37.25;16.70;;;;;;;;;;2080799;28;20037;-66
2022/03/13 03:12:53;;;;;;;37.35;16.77;;;;;;;;;;2081573;28;20022;-65
2022/03/13 03:14:13;;;;;;;29.15;15.80;;;;;;;;;;2079086;28;20032;-65
2022/03/13 03:15:32;;;;;;;30.00;15.45;;;;;;;;;;2078618;28;20025;-66
2022/03/13 03:16:53;;;;;;;31.35;15.82;;;;;;;;;;2078259;28;20501;-66
2022/03/13 03:18:12;;;;;;;30.60;15.35;;;;;;;;;;2078203;28;20123;-65
2022/03/13 03:19:30;;;;;;;34.97;16.02;;;;;;;;;;2079188;28;20120;-65
2022/03/13 03:20:49;;;;;;;33.72;16.27;;;;;;;;;;2079544;28;20022;-66
2022/03/13 03:22:08;;;;;;;31.27;17.85;;;;;;;;;;2078218;28;20046;-65
2022/03/13 03:23:27;;;;;;;32.80;16.13;;;;;;;;;;2079129;28;20038;-65
2022/03/13 03:24:48;;;;;;;40.42;17.48;;;;;;;;;;2079060;28;20459;-65
2022/03/13 03:26:07;;;;;;;35.33;16.33;;;;;;;;;;2080833;28;20038;-66
2022/03/13 03:27:30;;;;;;;31.58;15.80;;;;;;;;;;2076608;28;20026;-65
2022/03/13 03:28:49;;;;;;;30.02;15.25;;;;;;;;;;2079788;28;20033;-65
2022/03/13 03:30:08;;;;;;;36.85;16.55;;;;;;;;;;2078173;28;20046;-65
2022/03/13 03:31:27;;;;;;;31.80;15.48;;;;;;;;;;2079293;28;20029;-67
2022/03/13 03:32:47;;;;;;;33.63;16.50;;;;;;;;;;2080601;28;20036;-65
2022/03/13 03:34:10;;;;;;;36.80;15.45;;;;;;;;;;2079043;28;20029;-66
2022/03/13 03:35:28;;;;;;;;;;;;;;;;;;2080757;28;20037;-64
2022/03/13 03:36:49;;;;;;;30.10;15.15;;;;;;;;;;2079048;28;20275;-64
2022/03/13 03:38:08;;;;;;;32.72;15.93;;;;;;;;;;2077130;28;20104;-66
2022/03/13 03:39:29;;;;;;;27.90;15.57;;;;;;;;;;2079437;28;20037;-66
2022/03/13 03:40:48;;;;;;;36.45;16.85;;;;;;;;;;2080482;28;20072;-66
2022/03/13 03:42:07;;;;;;;31.35;15.82;;;;;;;;;;2079311;28;20025;-64
2022/03/13 03:43:26;;;;;;;37.08;16.10;;;;;;;;;;2079764;28;20045;-64
2022/03/13 03:44:45;;;;;;;31.75;16.20;;;;;;;;;;2077839;28;21629;-66
2022/03/13 03:46:04;;;;;;;36.72;16.40;;;;;;;;;;2079491;28;20026;-64
2022/03/13 03:47:23;;;;;;;25.58;15.10;;;;;;;;;;2081111;28;20480;-65
2022/03/13 03:48:42;;;;;;;34.25;16.08;;;;;;;;;;2078410;28;20399;-64
2022/03/13 03:50:01;;;;;;;27.83;15.35;;;;;;;;;;2077926;28;20113;-65
2022/03/13 03:51:20;;;;;;;32.92;15.65;;;;;;;;;;2079428;28;20383;-66
2022/03/13 03:52:39;;;;;;;32.47;16.85;;;;;;;;;;2079946;28;20072;-66
2022/03/13 03:53:59;;;;;;;32.25;16.10;;;;;;;;;;2079139;28;20041;-66
2022/03/13 03:55:18;;;;;;;30.52;16.88;;;;;;;;;;2077725;28;20427;-64
2022/03/13 03:56:37;;;;;;;32.70;17.27;;;;;;;;;;2078962;28;20470;-65
2022/03/13 03:57:56;;;;;;;39.45;16.70;;;;;;;;;;2079621;28;20065;-66
2022/03/13 03:59:15;;;;;;;33.42;16.80;;;;;;;;;;2080250;28;20162;-65
2022/03/13 04:00:34;;;;;;;36.00;16.98;;;;;;;;;;2077381;28;20423;-65
2022/03/13 04:01:53;;;;;;;33.45;16.23;;;;;;;;;;2078025;28;20439;-65
2022/03/13 04:03:12;;;;;;;34.05;17.20;;;;;;;;;;2075775;28;20113;-65
2022/03/13 04:04:30;;;;;;;29.25;16.02;;;;;;;;;;2076211;28;20517;-65
2022/03/13 04:05:49;;;;;;;33.20;16.63;;;;;;;;;;2080113;28;20026;-65
2022/03/13 04:07:08;;;;;;;32.95;17.13;;;;;;;;;;2078459;28;20782;-65
2022/03/13 04:08:29;;;;;;;32.17;16.50;;;;;;;;;;2079205;28;20045;-64
2022/03/13 04:09:49;;;;;;;35.47;17.20;;;;;;;;;;2078661;28;20432;-65
2022/03/13 04:11:08;;;;;;;30.95;16.52;;;;;;;;;;2077255;28;20592;-65
2022/03/13 04:12:28;;;;;;;37.55;17.25;;;;;;;;;;2077462;28;20504;-64
2022/03/13 04:13:47;;;;;;;30.38;16.70;;;;;;;;;;2079749;28;20026;-65
2022/03/13 04:15:06;;;;;;;38.40;17.23;;;;;;;;;;2078533;28;20480;-64
2022/03/13 04:16:25;;;;;;;30.35;16.77;;;;;;;;;;2081089;28;20022;-65
2022/03/13 04:17:44;;;;;;;41.83;16.80;;;;;;;;;;2079036;28;20029;-65
2022/03/13 04:19:03;;;;;;;31.95;16.85;;;;;;;;;;2078622;28;20026;-65
2022/03/13 04:20:24;;;;;;;32.80;16.95;;;;;;;;;;2076030;28;20038;-65
2022/03/13 04:21:43;;;;;;;33.90;16.35;;;;;;;;;;2077564;28;20057;-64
2022/03/13 04:23:02;;;;;;;33.78;16.20;;;;;;;;;;2078205;28;20025;-66
2022/03/13 04:24:22;;;;;;;29.98;15.50;;;;;;;;;;2080258;28;20112;-64
2022/03/13 04:25:40;;;;;;;31.10;16.48;;;;;;;;;;2077111;28;20049;-65
2022/03/13 04:26:59;;;;;;;27.98;15.80;;;;;;;;;;2077026;28;20017;-65
2022/03/13 04:28:18;;;;;;;32.70;16.92;;;;;;;;;;2078667;28;20025;-67
2022/03/13 04:29:38;;;;;;;36.53;16.65;;;;;;;;;;2079983;28;20472;-66
2022/03/13 04:30:58;;;;;;;28.65;15.20;;;;;;;;;;2077174;28;20029;-65
2022/03/13 04:32:23;;;;;;;34.17;16.55;;;;;;;;;;2079542;28;20092;-65
2022/03/13 04:33:42;;;;;;;39.90;16.80;;;;;;;;;;2079553;28;20053;-65
2022/03/13 04:35:01;;;;;;;32.38;15.65;;;;;;;;;;2079337;28;20057;-65
2022/03/13 04:36:23;;;;;;;32.20;15.85;;;;;;;;;;2080232;28;20064;-65
2022/03/13 04:37:42;;;;;;;38.72;15.85;;;;;;;;;;2075882;28;20104;-65
2022/03/13 04:39:03;;;;;;;52.90;16.45;;;;;;;;;;2078994;28;20030;-65
2022/03/13 04:40:22;;;;;;;41.88;15.52;;;;;;;;;;2077004;28;20029;-66
2022/03/13 04:41:41;;;;;;;32.85;15.55;;;;;;;;;;2077942;28;20544;-65
2022/03/13 04:43:01;;;;;;;36.33;16.38;;;;;;;;;;2075925;28;20388;-65
2022/03/13 04:44:21;;;;;;;34.05;15.68;;;;;;;;;;2080929;28;20028;-65
2022/03/13 04:45:40;;;;;;;37.08;15.90;;;;;;;;;;2080410;28;20037;-66
2022/03/13 04:46:59;;;;;;;32.88;15.13;;;;;;;;;;2077005;28;20038;-65
2022/03/13 04:48:18;;;;;;;35.42;15.10;;;;;;;;;;2079523;28;20112;-65
2022/03/13 04:49:37;;;;;;;30.33;15.15;;;;;;;;;;2078704;28;20025;-66
2022/03/13 04:50:56;;;;;;;36.13;17.33;;;;;;;;;;2072952;28;20025;-65
2022/03/13 04:52:15;;;;;;;33.60;16.55;;;;;;;;;;2077701;28;20484;-66
2022/03/13 04:53:34;;;;;;;33.80;15.40;;;;;;;;;;2079647;28;20021;-65
2022/03/13 04:54:53;;;;;;;34.10;16.58;;;;;;;;;;2079338;28;20021;-66
2022/03/13 04:56:12;;;;;;;31.52;15.32;;;;;;;;;;2078155;28;20508;-66
2022/03/13 04:57:31;;;;;;;32.90;15.75;;;;;;;;;;2076016;28;20698;-66
2022/03/13 04:58:50;;;;;;;33.58;16.35;;;;;;;;;;2079756;28;20041;-66
2022/03/13 05:00:09;;;;;;;35.85;16.92;;;;;;;;;;2076552;28;20033;-65
2022/03/13 05:01:28;;;;;;;26.30;15.02;;;;;;;;;;2076084;28;20033;-66
2022/03/13 05:02:46;;;;;;;31.25;16.63;;;;;;;;;;2077853;28;20017;-65
2022/03/13 05:04:06;;;;;;;29.98;17.08;;;;;;;;;;2078572;28;20030;-66
2022/03/13 05:05:25;;;;;;;39.80;18.95;;;;;;;;;;2079645;28;20073;-64
2022/03/13 05:06:45;;;;;;;37.85;17.83;;;;;;;;;;2079060;28;20041;-65
2022/03/13 05:08:05;;;;;;;43.90;18.45;;;;;;;;;;2079415;28;20104;-65
2022/03/13 05:09:24;;;;;;;38.15;19.08;;;;;;;;;;2078345;28;20033;-65
2022/03/13 05:10:43;;;;;;;37.45;19.83;;;;;;;;;;2074696;28;20427;-64
2022/03/13 05:12:10;;;;;;;35.38;18.88;;;;;;;;;;2075563;28;20037;-65
2022/03/13 05:13:29;;;;;;;37.42;18.40;;;;;;;;;;2079091;28;20576;-65
2022/03/13 05:14:47;;;;;;;40.47;18.40;;;;;;;;;;2078424;28;20037;-65
2022/03/13 05:16:06;;;;;;;42.13;19.00;;;;;;;;;;2077095;28;20124;-63
2022/03/13 05:17:25;;;;;;;34.90;18.15;;;;;;;;;;2078629;28;20026;-64
2022/03/13 05:18:44;;;;;;;40.22;17.27;;;;;;;;;;2079893;28;20033;-65
2022/03/13 05:20:03;;;;;;;32.50;17.25;;;;;;;;;;2078373;28;20026;-65
2022/03/13 05:21:22;;;;;;;34.35;16.90;;;;;;;;;;2073185;28;20448;-66
2022/03/13 05:22:41;;;;;;;37.72;17.70;;;;;;;;;;2078994;28;20038;-66
2022/03/13 05:24:00;;;;;;;29.77;16.33;;;;;;;;;;2077095;28;20061;-65
2022/03/13 05:25:19;;;;;;;33.72;17.05;;;;;;;;;;2077745;28;20033;-64
2022/03/13 05:26:38;;;;;;;36.92;16.55;;;;;;;;;;2077942;28;20025;-65
2022/03/13 05:28:01;;;;;;;30.45;15.60;;;;;;;;;;2076128;28;20030;-65
2022/03/13 05:29:20;;;;;;;29.92;16.48;;;;;;;;;;2078719;28;20030;-64
2022/03/13 05:30:39;;;;;;;33.00;17.02;;;;;;;;;;2074951;28;20515;-65
2022/03/13 05:31:58;;;;;;;34.33;15.95;;;;;;;;;;2075426;28;20034;-65
2022/03/13 05:33:17;;;;;;;33.72;16.52;;;;;;;;;;2078871;28;20488;-65
2022/03/13 05:34:37;;;;;;;33.40;16.52;;;;;;;;;;2080777;28;20439;-65
2022/03/13 05:35:56;;;;;;;32.83;16.75;;;;;;;;;;2078223;28;20437;-66
2022/03/13 05:37:15;;;;;;;35.42;16.77;;;;;;;;;;2075865;28;20416;-65
2022/03/13 05:38:35;;;;;;;34.33;16.83;;;;;;;;;;2077515;28;20034;-65
2022/03/13 05:39:53;;;;;;;33.38;16.38;;;;;;;;;;2078996;28;20033;-62
2022/03/13 05:41:13;;;;;;;34.97;16.35;;;;;;;;;;2077907;28;20048;-64
2022/03/13 05:42:32;;;;;;;30.67;16.70;;;;;;;;;;2078798;28;20040;-64
2022/03/13 05:43:51;;;;;;;32.22;15.63;;;;;;;;;;2079390;28;20034;-64
2022/03/13 05:45:11;;;;;;;29.05;15.85;;;;;;;;;;2075594;28;20480;-63
2022/03/13 05:46:30;;;;;;;33.42;16.17;;;;;;;;;;2077702;28;20033;-65
2022/03/13 05:47:50;;;;;;;29.75;15.60;;;;;;;;;;2081091;28;20033;-64
2022/03/13 05:49:09;;;;;;;31.65;16.83;;;;;;;;;;2081044;28;20037;-64
2022/03/13 05:50:28;;;;;;;31.20;16.40;;;;;;;;;;2078898;28;20022;-64
2022/03/13 05:51:48;;;;;;;29.20;15.95;;;;;;;;;;2078253;28;20026;-64
2022/03/13 05:53:06;;;;;;;27.33;14.73;;;;;;;;;;2076192;28;20029;-63
2022/03/13 05:54:25;;;;;;;34.65;16.23;;;;;;;;;;2080279;28;20033;-64
2022/03/13 05:55:44;;;;;;;29.27;15.82;;;;;;;;;;2080331;28;20053;-64
2022/03/13 05:57:04;;;;;;;32.72;15.30;;;;;;;;;;2080313;28;20547;-64
2022/03/13 05:58:23;;;;;;;33.55;16.52;;;;;;;;;;2080319;28;20049;-64
2022/03/13 05:59:41;;;;;;;37.53;16.48;;;;;;;;;;2080448;28;20033;-64
2022/03/13 06:01:05;;;;;;;42.63;19.23;;;;;;;;;;2079274;28;20026;-64
2022/03/13 06:02:24;;;;;;;42.85;21.20;;;;;;;;;;2077442;28;20030;-64
2022/03/13 06:03:43;;;;;;;34.97;16.15;;;;;;;;;;2080998;28;20033;-65
2022/03/13 06:05:03;;;;;;;29.38;15.55;;;;;;;;;;2082050;28;20057;-64
2022/03/13 06:06:21;;;;;;;28.15;14.73;;;;;;;;;;2080974;28;20029;-65
2022/03/13 06:07:40;;;;;;;32.17;15.80;;;;;;;;;;2079502;28;20037;-64
2022/03/13 06:08:59;;;;;;;29.33;15.20;;;;;;;;;;2078682;28;20033;-64
2022/03/13 06:10:21;;;;;;;28.35;15.20;;;;;;;;;;2078819;28;20026;-67
2022/03/13 06:11:40;;;;;;;30.45;14.23;;;;;;;;;;2079015;28;20044;-63
2022/03/13 06:12:59;;;;;;;31.23;15.77;;;;;;;;;;2081536;28;20124;-64
2022/03/13 06:14:18;;;;;;;33.30;15.27;;;;;;;;;;2081369;28;20037;-65
2022/03/13 06:15:38;;;;;;;27.27;14.25;;;;;;;;;;2080738;28;20030;-64
2022/03/13 06:16:56;;;;;;;29.70;15.50;;;;;;;;;;2080178;28;20025;-64
2022/03/13 06:18:16;;;;;;;30.13;15.23;;;;;;;;;;2080454;28;20029;-65
2022/03/13 06:19:39;;;;;;;28.65;14.73;;;;;;;;;;2081224;28;20042;-65
2022/03/13 06:20:59;;;;;;;30.33;14.73;;;;;;;;;;2080338;28;20480;-65
2022/03/13 06:22:19;;;;;;;27.08;15.05;;;;;;;;;;2078520;28;20033;-65
2022/03/13 06:23:37;;;;;;;30.85;15.63;;;;;;;;;;2080654;28;20033;-64
2022/03/13 06:24:56;;;;;;;27.40;14.40;;;;;;;;;;2080662;28;20060;-64
2022/03/13 06:26:16;;;;;;;23.48;14.68;;;;;;;;;;2080498;28;20515;-65
2022/03/13 06:27:36;;;;;;;35.33;15.60;;;;;;;;;;2078839;28;20026;-64
2022/03/13 06:28:54;;;;;;;29.25;15.38;;;;;;;;;;2079792;28;20029;-64
2022/03/13 06:30:16;;;;;;;27.17;15.07;;;;;;;;;;2081031;28;20029;-64
2022/03/13 06:31:35;;;;;;;22.77;13.20;;;;;;;;;;2080146;28;20025;-64
2022/03/13 06:32:55;;;;;;;27.02;14.52;;;;;;;;;;2079120;28;20108;-64
2022/03/13 06:34:14;;;;;;;25.38;13.55;;;;;;;;;;2079917;28;20472;-64
2022/03/13 06:35:33;;;;;;;25.70;14.05;;;;;;;;;;2080308;28;20065;-64
2022/03/13 06:36:52;;;;;;;27.58;13.30;;;;;;;;;;2080315;28;20060;-64
2022/03/13 06:38:11;;;;;;;24.33;13.93;;;;;;;;;;2078887;28;20037;-64
2022/03/13 06:39:30;;;;;;;23.60;12.52;;;;;;;;;;2074552;28;20049;-64
2022/03/13 06:40:48;;;;;;;25.88;13.73;;;;;;;;;;2076609;28;20500;-64
2022/03/13 06:42:08;;;;;;;23.40;13.60;;;;;;;;;;2078994;28;20057;-64
2022/03/13 06:43:27;;;;;;;22.50;12.65;;;;;;;;;;2079038;28;20095;-63
2022/03/13 06:44:45;;;;;;;23.02;12.68;;;;;;;;;;2080565;28;20128;-64
2022/03/13 06:46:04;;;;;;;24.23;12.65;;;;;;;;;;2079685;28;20032;-64
2022/03/13 06:47:24;;;;;;;24.63;12.98;;;;;;;;;;2078102;28;20113;-63
2022/03/13 06:48:43;;;;;;;18.50;12.10;;;;;;;;;;2078701;28;20045;-63
2022/03/13 06:50:02;;;;;;;19.77;11.90;;;;;;;;;;2079481;28;20018;-63
2022/03/13 06:51:21;;;;;;;21.25;11.88;;;;;;;;;;2078894;28;20033;-63
2022/03/13 06:52:40;;;;;;;21.40;11.88;;;;;;;;;;2078651;28;20116;-63
2022/03/13 06:53:59;;;;;;;18.13;11.93;;;;;;;;;;2080762;28;20492;-63
2022/03/13 06:55:19;;;;;;;19.48;11.38;;;;;;;;;;2077299;28;20041;-63
2022/03/13 06:56:39;;;;;;;24.08;11.68;;;;;;;;;;2077625;28;20412;-63
2022/03/13 06:57:58;;;;;;;23.13;11.60;;;;;;;;;;2078162;28;20120;-63
2022/03/13 06:59:17;;;;;;;19.33;11.68;;;;;;;;;;2080331;28;20042;-67
2022/03/13 07:00:36;;;;;;;20.25;11.18;;;;;;;;;;2077331;28;20061;-63
2022/03/13 07:01:54;;;;;;;20.98;10.93;;;;;;;;;;2080608;28;20034;-64
2022/03/13 07:03:13;;;;;;;18.98;10.77;;;;;;;;;;2079442;28;20484;-64
2022/03/13 07:04:32;;;;;;;16.35;10.93;;;;;;;;;;2079990;28;20037;-63
2022/03/13 07:05:51;;;;;;;17.83;10.35;;;;;;;;;;2079459;28;20034;-63
2022/03/13 07:07:10;;;;;;;22.75;10.45;;;;;;;;;;2078471;28;20026;-66
2022/03/13 07:08:32;;;;;;;12.85;9.20;;;;;;;;;;2078789;28;20029;-63
2022/03/13 07:09:52;;;;;;;15.73;9.98;;;;;;;;;;2079803;28;20082;-64
2022/03/13 07:11:10;;;;;;;16.55;10.85;;;;;;;;;;2079127;28;20484;-65
2022/03/13 07:12:29;;;;;;;20.25;11.25;;;;;;;;;;2077876;28;20038;-65
2022/03/13 07:13:48;;;;;;;17.33;10.80;;;;;;;;;;2079522;28;20030;-65
2022/03/13 07:15:10;;;;;;;18.90;10.07;;;;;;;;;;2080372;28;20037;-65
2022/03/13 07:16:29;;;;;;;19.08;10.68;;;;;;;;;;2080331;28;20496;-64
2022/03/13 07:17:48;;;;;;;15.52;9.77;;;;;;;;;;2077444;28;20550;-66
2022/03/13 07:19:07;;;;;;;17.70;9.63;;;;;;;;;;2077728;28;20029;-64
2022/03/13 07:20:26;;;;;;;15.75;10.18;;;;;;;;;;2073716;28;20026;-65
2022/03/13 07:21:45;;;;;;;14.45;9.40;;;;;;;;;;2075679;28;20022;-64
2022/03/13 07:23:04;;;;;;;14.45;9.68;;;;;;;;;;2075164;28;20025;-64
2022/03/13 07:24:24;;;;;;;15.00;9.68;;;;;;;;;;2077282;28;20029;-66
2022/03/13 07:25:42;;;;;;;17.42;10.15;;;;;;;;;;2080043;28;20495;-66
2022/03/13 07:27:01;;;;;;;12.45;9.00;;;;;;;;;;2077356;28;20025;-66
2022/03/13 07:28:20;;;;;;;17.38;10.38;;;;;;;;;;2074279;28;20035;-66
2022/03/13 07:29:39;;;;;;;14.85;8.90;;;;;;;;;;2079588;28;20068;-64
2022/03/13 07:30:58;;;;;;;15.70;9.68;;;;;;;;;;2078645;28;20029;-67
2022/03/13 07:32:17;;;;;;;16.50;9.60;;;;;;;;;;2075853;28;20030;-67
2022/03/13 07:33:36;;;;;;;14.27;9.00;;;;;;;;;;2078012;28;20053;-64
2022/03/13 07:34:55;;;;;;;21.17;11.38;;;;;;;;;;2079782;28;20045;-64
2022/03/13 07:36:14;;;;;;;13.45;9.00;;;;;;;;;;2080410;28;20411;-65
2022/03/13 07:37:33;;;;;;;21.13;8.90;;;;;;;;;;2077475;28;20033;-65
2022/03/13 07:38:52;;;;;;;16.58;8.80;;;;;;;;;;2078395;28;20030;-66
2022/03/13 07:40:11;;;;;;;18.23;9.32;;;;;;;;;;2080421;28;20512;-66
2022/03/13 07:41:30;;;;;;;15.35;8.48;;;;;;;;;;2074826;28;20042;-68
2022/03/13 07:42:49;;;;;;;19.90;8.60;;;;;;;;;;2078686;28;20069;-66
2022/03/13 07:44:10;;;;;;;16.30;8.35;;;;;;;;;;2077387;28;20484;-66